BNC weather

Banco De La Republica Heliport
Pasto, NariƱo Department, Colombia

Public forecast

Using degrees Celsius for public forecast. Weather courtesy of forecast.io.

METAR (pilot weather report)

Closest report is Antonio Narino Airport, 12.0 nm (22.2 km) N. Retrieved 2019/08/19 22:00 UTC (27 minutes ago):

SKPS 192200Z 13010G20KT 9999 BKN028 23/08 A3007

TAF (pilot weather forecast)

Forecast is more than 12 hours old.

Closest forecast is Teniente Coronel Luis a Mantilla Airport, 34.7 nm (64.2 km) SW. Retrieved 2018/04/06 18:33 UTC (1 year ago):

TAF SPJC 061700Z 0618/0718 25008KT CAVOK TX26/0618Z TN18/0711ZLVA0883 061730 GG KWBCYMYX 061730 SEQUYZYX SPEQ SEQU 061728 SPECI SETU 061728Z 07006KT 9999 -TSRA FEW020CB BKN023 CB OVER STN